Time;durP1;ratioP1;P1;durP2;ratioP2;P2;SDS_P1;SDS_P2;PMS_P1;PMS_P2;Temp;Humidity;BMP_temperature;BMP_pressure;BME280_temperature;BME280_humidity;BME280_pressure;Samples;Min_cycle;Max_cycle;Signal;HPM_P1;HPM_P2
2022/11/22 00:00:21;;;;;;;3.63;3.15;;;;;;;6.25;74.59;95718.09;5096030;28;20044;-62
2022/11/22 00:02:50;;;;;;;3.55;3.00;;;;;;;6.10;74.79;95719.47;5095948;28;20044;-62
2022/11/22 00:05:17;;;;;;;3.30;3.00;;;;;;;6.03;75.38;95719.66;5095941;28;20066;-62
2022/11/22 00:07:44;;;;;;;3.17;2.88;;;;;;;6.04;75.16;95712.72;5095668;28;20074;-62
2022/11/22 00:10:14;;;;;;;5.63;3.55;;;;;;;6.00;75.21;95716.28;5095425;28;20055;-61
2022/11/22 00:12:41;;;;;;;3.38;3.08;;;;;;;5.94;75.16;95713.00;5095769;28;20075;-62
2022/11/22 00:15:09;;;;;;;7.32;2.33;;;;;;;5.91;75.37;95717.44;5095629;28;20074;-62
2022/11/22 00:17:37;;;;;;;3.08;2.60;;;;;;;5.90;75.76;95711.41;5095638;28;20139;-62
2022/11/22 00:20:09;;;;;;;3.20;2.90;;;;;;;5.95;76.00;95708.66;5095869;28;20044;-62
2022/11/22 00:22:36;;;;;;;3.40;2.97;;;;;;;5.98;76.21;95700.78;5095608;28;20044;-62
2022/11/22 00:25:04;;;;;;;4.25;2.92;;;;;;;6.09;76.36;95707.38;5095509;28;20446;-62
2022/11/22 00:27:31;;;;;;;3.47;3.00;;;;;;;6.10;76.45;95712.53;5095321;28;20052;-62
2022/11/22 00:29:58;;;;;;;3.13;2.83;;;;;;;6.14;76.10;95713.28;5095455;28;20177;-62
2022/11/22 00:32:26;;;;;;;3.92;3.17;;;;;;;6.17;75.94;95718.38;5095318;28;20398;-62
2022/11/22 00:34:53;;;;;;;12.40;2.70;;;;;;;6.13;75.42;95735.78;5095243;28;20485;-62
2022/11/22 00:37:21;;;;;;;4.00;2.80;;;;;;;6.09;75.54;95741.13;5095322;28;20076;-62
2022/11/22 00:39:49;;;;;;;3.30;2.92;;;;;;;6.14;75.27;95747.03;5094805;28;20044;-62
2022/11/22 00:42:16;;;;;;;3.60;2.83;;;;;;;6.18;74.92;95748.63;5094679;28;20412;-62
2022/11/22 00:44:43;;;;;;;3.05;2.53;;;;;;;6.17;74.47;95749.53;5094926;28;20101;-62
2022/11/22 00:47:10;;;;;;;6.38;2.90;;;;;;;6.11;74.40;95755.75;5094996;28;20091;-62
2022/11/22 00:49:37;;;;;;;4.30;2.83;;;;;;;6.13;74.32;95758.31;5095133;28;20079;-62
2022/11/22 00:52:04;;;;;;;2.97;2.50;;;;;;;6.10;74.13;95767.06;5094887;28;20044;-62
2022/11/22 00:54:33;;;;;;;3.72;3.03;;;;;;;6.09;74.42;95767.09;5094832;28;20048;-61
2022/11/22 00:57:00;;;;;;;3.08;2.85;;;;;;;6.13;74.81;95764.38;5094878;28;20052;-62
2022/11/22 00:59:27;;;;;;;4.00;2.92;;;;;;;6.16;74.72;95766.00;5094801;28;20391;-62
2022/11/22 01:01:54;;;;;;;3.63;3.15;;;;;;;6.26;74.41;95766.56;5094697;28;20051;-62
2022/11/22 01:04:21;;;;;;;3.63;3.20;;;;;;;6.32;74.54;95767.19;5094762;28;20413;-62
2022/11/22 01:06:48;;;;;;;3.40;2.72;;;;;;;6.30;74.26;95766.38;5094693;28;20411;-61
2022/11/22 01:09:19;;;;;;;4.75;2.85;;;;;;;6.16;74.18;95771.19;5094546;28;20109;-62
2022/11/22 01:11:48;;;;;;;3.03;2.72;;;;;;;6.18;74.62;95769.41;5094441;28;20048;-62
2022/11/22 01:14:16;;;;;;;3.45;3.15;;;;;;;6.23;74.28;95770.09;5094448;28;20477;-62
2022/11/22 01:16:44;;;;;;;2.90;2.60;;;;;;;6.26;73.78;95767.41;5094523;28;20130;-62
2022/11/22 01:19:11;;;;;;;3.38;3.08;;;;;;;6.24;73.79;95757.97;5094524;28;20083;-62
2022/11/22 01:21:38;;;;;;;5.80;2.88;;;;;;;6.17;73.95;95741.75;5094507;28;20523;-62
2022/11/22 01:24:06;;;;;;;4.40;2.80;;;;;;;6.04;73.92;95749.06;5094366;28;20051;-62
2022/11/22 01:26:34;;;;;;;3.15;2.72;;;;;;;5.82;74.05;95737.59;5094308;28;20131;-62
2022/11/22 01:29:02;;;;;;;3.58;2.78;;;;;;;5.66;74.23;95736.41;5094176;28;20048;-62
2022/11/22 01:31:30;;;;;;;3.92;3.33;;;;;;;5.51;74.68;95746.34;5094213;28;20064;-62
2022/11/22 01:33:57;;;;;;;3.30;3.00;;;;;;;5.56;75.62;95749.66;5094200;28;20123;-62
2022/11/22 01:36:24;;;;;;;3.67;3.03;;;;;;;5.54;76.34;95745.44;5094047;28;20485;-62
2022/11/22 01:38:51;;;;;;;3.88;2.80;;;;;;;5.56;76.17;95752.25;5094064;28;20087;-62
2022/11/22 01:41:18;;;;;;;3.28;2.67;;;;;;;5.55;75.33;95760.94;5094031;28;20473;-61
2022/11/22 01:43:45;;;;;;;3.35;2.80;;;;;;;5.54;74.95;95771.38;5094074;28;20123;-62
2022/11/22 01:46:26;;;;;;;2.78;2.58;;;;;;;5.52;74.77;95778.34;5094056;28;20119;-62
2022/11/22 01:48:57;;;;;;;3.22;2.92;;;;;;;5.47;74.43;95775.88;5093821;28;20047;-62
2022/11/22 01:51:28;;;;;;;3.15;2.60;;;;;;;5.49;74.57;95768.91;5093706;28;20074;-62
2022/11/22 01:53:58;;;;;;;7.43;2.42;;;;;;;5.32;73.26;95761.63;5093802;28;20119;-62
2022/11/22 01:56:28;;;;;;;5.60;3.13;;;;;;;5.18;73.70;95762.03;5093688;28;20044;-62
2022/11/22 01:59:00;;;;;;;7.93;2.67;;;;;;;5.05;74.84;95764.13;5093801;28;20050;-62
2022/11/22 02:01:29;;;;;;;2.47;2.28;;;;;;;5.01;74.27;95759.91;5093678;28;20090;-62
2022/11/22 02:04:00;;;;;;;2.95;2.50;;;;;;;4.93;74.23;95760.13;5093605;28;20093;-62
2022/11/22 02:06:37;;;;;;;2.58;2.38;;;;;;;4.88;73.72;95767.19;5093528;28;20138;-62
2022/11/22 02:09:10;;;;;;;2.28;1.90;;;;;;;4.74;73.69;95759.78;5093468;28;20488;-62
2022/11/22 02:11:41;;;;;;;2.97;2.35;;;;;;;4.63;73.62;95762.66;5093327;28;20051;-62
2022/11/22 02:14:11;;;;;;;3.92;3.15;;;;;;;4.51;74.09;95767.28;5093430;28;20477;-62
2022/11/22 02:16:41;;;;;;;4.07;2.20;;;;;;;4.44;74.28;95770.94;5093404;28;20044;-61
2022/11/22 02:19:15;;;;;;;3.72;3.03;;;;;;;4.30;74.59;95771.28;5093343;28;20149;-62
2022/11/22 02:21:43;;;;;;;3.08;2.53;;;;;;;4.09;75.23;95765.75;5093349;28;20466;-62
2022/11/22 02:24:19;;;;;;;3.95;2.88;;;;;;;4.03;74.99;95773.66;5093358;28;20058;-61
2022/11/22 02:26:47;;;;;;;7.00;2.83;;;;;;;3.95;75.62;95773.88;5093372;28;20040;-62
2022/11/22 02:29:15;;;;;;;3.83;2.75;;;;;;;3.88;75.16;95777.47;5093218;28;20493;-61
2022/11/22 02:31:45;;;;;;;2.60;2.40;;;;;;;3.74;75.07;95791.59;5093278;28;20136;-62
2022/11/22 02:34:13;;;;;;;3.33;2.85;;;;;;;3.67;76.20;95790.00;5093174;28;20565;-62
2022/11/22 02:36:44;;;;;;;3.58;2.78;;;;;;;3.68;77.17;95802.09;5093234;28;20044;-62
2022/11/22 02:39:14;;;;;;;4.53;2.63;;;;;;;3.66;77.14;95798.66;5093186;28;20474;-61
2022/11/22 02:41:42;;;;;;;2.78;2.50;;;;;;;3.66;75.22;95803.84;5093221;28;20131;-62
2022/11/22 02:44:12;;;;;;;4.72;2.42;;;;;;;3.58;75.46;95803.16;5093201;28;20048;-61
2022/11/22 02:46:47;;;;;;;2.95;2.53;;;;;;;3.47;74.83;95793.06;5093182;28;20456;-62
2022/11/22 02:49:17;;;;;;;3.00;2.38;;;;;;;3.39;74.96;95794.06;5092902;28;20052;-62
2022/11/22 02:51:44;;;;;;;3.55;2.42;;;;;;;3.24;74.67;95790.06;5093196;28;20402;-62
2022/11/22 02:54:11;;;;;;;4.03;2.90;;;;;;;3.20;75.06;95790.16;5093020;28;20406;-62
2022/11/22 02:56:38;;;;;;;2.67;2.40;;;;;;;3.04;75.49;95798.22;5092963;28;20044;-62
2022/11/22 02:59:06;;;;;;;4.43;2.78;;;;;;;2.94;76.34;95791.53;5092904;28;20044;-61
2022/11/22 03:01:34;;;;;;;3.40;2.63;;;;;;;2.76;76.40;95786.72;5093077;28;20044;-61
2022/11/22 03:04:01;;;;;;;3.00;2.45;;;;;;;2.69;76.91;95789.44;5094434;28;20056;-62
2022/11/22 03:06:28;;;;;;;4.40;2.72;;;;;;;2.55;76.95;95790.53;5097007;28;20486;-62
2022/11/22 03:08:56;;;;;;;7.90;2.97;;;;;;;2.53;77.72;95790.56;5096904;28;20048;-62
2022/11/22 03:11:23;;;;;;;2.70;2.50;;;;;;;2.53;77.85;95789.72;5096863;28;20055;-62
2022/11/22 03:13:50;;;;;;;2.85;2.65;;;;;;;2.45;77.65;95804.50;5097017;28;20083;-61
2022/11/22 03:16:17;;;;;;;9.55;3.00;;;;;;;2.49;77.95;95803.56;5096864;28;20048;-62
2022/11/22 03:18:45;;;;;;;3.28;2.85;;;;;;;2.42;78.30;95796.78;5096930;28;20048;-62
2022/11/22 03:21:13;;;;;;;3.92;2.92;;;;;;;2.47;78.34;95790.66;5096841;28;20127;-62
2022/11/22 03:23:42;;;;;;;3.85;3.40;;;;;;;2.45;79.21;95799.31;5096671;28;20052;-62
2022/11/22 03:26:12;;;;;;;7.13;3.53;;;;;;;2.55;78.92;95805.16;5096626;28;20046;-62
2022/11/22 03:28:39;;;;;;;3.58;2.70;;;;;;;2.59;78.76;95802.50;5096470;28;20513;-62
2022/11/22 03:31:06;;;;;;;3.00;2.70;;;;;;;2.56;78.08;95817.22;5096486;28;20078;-61
2022/11/22 03:33:34;;;;;;;3.63;3.22;;;;;;;2.49;78.05;95813.88;5096567;28;20059;-62
2022/11/22 03:36:03;;;;;;;3.13;2.65;;;;;;;2.59;78.45;95815.41;5096450;28;20122;-62
2022/11/22 03:38:30;;;;;;;3.17;2.75;;;;;;;2.58;77.82;95823.19;5096477;28;20119;-62
2022/11/22 03:40:58;;;;;;;5.38;2.50;;;;;;;2.48;77.80;95831.13;5096539;28;20066;-62
2022/11/22 03:43:25;;;;;;;3.70;2.83;;;;;;;2.38;76.75;95827.00;5096361;28;20044;-61
2022/11/22 03:45:52;;;;;;;3.28;2.63;;;;;;;2.30;77.05;95831.41;5096346;28;20117;-62
2022/11/22 03:48:20;;;;;;;2.78;2.22;;;;;;;2.23;77.12;95828.09;5096188;28;20055;-61
2022/11/22 03:50:47;;;;;;;5.60;2.95;;;;;;;2.18;77.30;95830.75;5096259;28;20412;-62
2022/11/22 03:53:15;;;;;;;6.72;2.33;;;;;;;2.12;77.25;95836.88;5096095;28;20048;-62
2022/11/22 03:55:43;;;;;;;3.58;2.72;;;;;;;2.13;77.57;95840.28;5096166;28;20123;-61
2022/11/22 03:58:10;;;;;;;3.20;2.78;;;;;;;2.10;77.17;95837.75;5096019;28;20056;-62
2022/11/22 04:00:37;;;;;;;7.05;2.72;;;;;;;1.94;77.71;95840.56;5095960;28;20076;-62
2022/11/22 04:03:05;;;;;;;3.97;2.75;;;;;;;1.93;77.66;95856.06;5095894;28;20047;-61
2022/11/22 04:05:32;;;;;;;6.35;3.08;;;;;;;1.86;77.81;95856.16;5096253;28;20131;-61
2022/11/22 04:07:59;;;;;;;2.97;2.42;;;;;;;1.82;77.08;95861.38;5095760;28;20105;-61
2022/11/22 04:10:27;;;;;;;3.55;2.85;;;;;;;1.82;77.72;95863.97;5095565;28;20101;-61
2022/11/22 04:12:58;;;;;;;5.07;2.45;;;;;;;1.80;77.20;95868.31;5095773;28;20076;-61
2022/11/22 04:15:24;;;;;;;3.00;2.63;;;;;;;1.81;77.47;95865.72;5094297;28;20044;-61
2022/11/22 04:17:51;;;;;;;8.55;2.75;;;;;;;1.79;77.42;95866.56;5095653;28;20056;-61
2022/11/22 04:23:07;;;;;;;2.88;2.28;;;;;;;1.63;77.85;95866.81;5095578;28;20182;-61
2022/11/22 04:25:38;;;;;;;2.92;2.50;;;;;;;1.56;77.97;95876.34;5095572;28;20126;-61
2022/11/22 04:28:06;;;;;;;3.67;2.53;;;;;;;1.61;78.40;95878.84;5095371;28;20142;-61
2022/11/22 04:33:19;;;;;;;3.13;2.83;;;;;;;1.60;78.08;95883.16;5095460;28;20055;-61
2022/11/22 04:35:46;;;;;;;2.70;2.45;;;;;;;1.51;77.98;95883.28;5095242;28;20048;-61
2022/11/22 04:38:14;;;;;;;4.32;2.50;;;;;;;1.46;77.37;95880.75;5095224;28;20044;-62
2022/11/22 04:40:43;;;;;;;3.35;2.83;;;;;;;1.47;77.81;95886.75;5095185;28;20048;-62
2022/11/22 04:46:02;;;;;;;3.15;2.50;;;;;;;1.45;78.32;95888.50;5095290;28;20124;-61
2022/11/22 04:48:29;;;;;;;4.30;2.95;;;;;;;1.36;78.23;95897.22;5095073;28;20048;-62
2022/11/22 04:53:43;;;;;;;3.20;2.78;;;;;;;1.21;78.38;95918.84;5094975;28;20505;-61
2022/11/22 04:56:12;;;;;;;6.05;2.90;;;;;;;1.14;78.51;95923.19;5094889;28;20056;-62
2022/11/22 04:58:40;;;;;;;4.32;2.42;;;;;;;1.09;78.77;95930.97;5094794;28;20060;-62
2022/11/22 05:01:07;;;;;;;3.25;2.40;;;;;;;1.12;78.93;95936.09;5094818;28;20051;-62
2022/11/22 05:03:34;;;;;;;3.28;2.45;;;;;;;1.10;79.10;95939.56;5094857;28;20405;-61
2022/11/22 05:06:02;;;;;;;3.60;2.53;;;;;;;1.12;78.97;95945.56;5094930;28;20047;-62
2022/11/22 05:08:30;;;;;;;4.97;2.78;;;;;;;1.12;78.60;95948.97;5094541;28;20074;-62
2022/11/22 05:10:58;;;;;;;6.63;2.55;;;;;;;1.09;78.67;95954.16;5094493;28;20447;-62
2022/11/22 05:13:29;;;;;;;3.75;2.65;;;;;;;1.12;78.25;95954.13;5094532;28;20048;-62
2022/11/22 05:15:58;;;;;;;4.22;2.17;;;;;;;1.07;78.13;95953.34;5094614;28;20040;-62
2022/11/22 05:18:27;;;;;;;4.95;2.38;;;;;;;1.15;78.03;95967.88;5094513;28;20051;-62
2022/11/22 05:20:55;;;;;;;7.07;2.60;;;;;;;1.13;78.07;95973.03;5094428;28;20097;-62
2022/11/22 05:26:16;;;;;;;2.78;2.45;;;;;;;1.16;77.51;95979.88;5069164;28;20044;-62
2022/11/22 05:28:44;;;;;;;4.20;2.55;;;;;;;1.20;77.39;95989.31;5094256;28;20070;-62
2022/11/22 05:31:13;;;;;;;4.20;2.30;;;;;;;1.26;77.53;95991.81;5094234;28;20383;-62
2022/11/22 05:33:42;;;;;;;3.65;2.50;;;;;;;1.24;77.05;95986.66;5094457;28;20051;-62
2022/11/22 05:36:10;;;;;;;3.00;2.35;;;;;;;1.25;76.73;95988.38;5094177;28;20044;-62
2022/11/22 05:38:38;;;;;;;3.20;2.08;;;;;;;1.22;76.69;95988.41;5094172;28;20048;-62
2022/11/22 05:41:07;;;;;;;3.28;2.60;;;;;;;1.18;77.09;96002.22;5094173;28;20105;-62
2022/11/22 05:43:34;;;;;;;2.72;2.15;;;;;;;1.24;76.87;95998.72;5094065;28;20075;-62
2022/11/22 05:46:08;;;;;;;3.22;2.67;;;;;;;1.22;77.11;95998.72;5094083;28;20043;-62
2022/11/22 05:48:36;;;;;;;6.03;2.35;;;;;;;1.24;77.21;95996.97;5093944;28;20104;-62
2022/11/22 05:51:08;;;;;;;3.83;2.38;;;;;;;1.22;77.53;95996.16;5094019;28;20051;-62
2022/11/22 05:53:35;;;;;;;4.40;2.33;;;;;;;1.29;77.35;95990.94;5093892;28;20516;-62
2022/11/22 05:56:07;;;;;;;2.70;2.42;;;;;;;1.46;78.26;95993.31;5093966;28;20566;-62
2022/11/22 05:58:34;;;;;;;2.70;2.45;;;;;;;2.69;76.91;95991.75;5093737;28;20079;-62
2022/11/22 06:01:08;;;;;;;4.55;2.03;;;;;;;4.55;68.53;95985.66;5093676;28;20512;-62
2022/11/22 06:03:36;;;;;;;2.15;2.00;;;;;;;6.26;61.78;95993.38;5093736;28;20044;-62
2022/11/22 06:06:03;;;;;;;1.90;1.70;;;;;;;7.89;57.01;95988.16;5093639;28;20044;-62
2022/11/22 06:08:33;;;;;;;2.08;1.88;;;;;;;9.39;52.02;95980.66;5093549;28;20454;-62
2022/11/22 06:11:05;;;;;;;2.17;1.63;;;;;;;10.77;48.50;95983.31;5093250;28;20493;-62
2022/11/22 06:13:35;;;;;;;3.42;1.65;;;;;;;11.74;45.64;95991.69;5093732;28;20155;-62
2022/11/22 06:16:04;;;;;;;1.85;1.60;;;;;;;12.54;44.15;95988.41;5093545;28;20559;-62
2022/11/22 06:18:33;;;;;;;3.78;1.67;;;;;;;13.47;42.37;95995.50;5093560;28;20561;-63
2022/11/22 06:21:05;;;;;;;1.60;1.50;;;;;;;14.93;39.14;95990.25;5093419;28;20478;-62
2022/11/22 06:23:32;;;;;;;1.23;1.13;;;;;;;15.74;37.13;96002.59;5093522;28;20077;-62
2022/11/22 06:26:00;;;;;;;3.67;1.45;;;;;;;16.10;36.39;96006.34;5093514;28;20074;-62
2022/11/22 06:28:29;;;;;;;1.25;1.15;;;;;;;17.09;35.38;96008.28;5093323;28;20113;-62
2022/11/22 06:31:01;;;;;;;1.30;1.20;;;;;;;17.95;32.88;96012.56;5093277;28;20048;-62
2022/11/22 06:33:28;;;;;;;1.65;1.30;;;;;;;18.35;33.09;96021.88;5093225;28;20044;-62
2022/11/22 06:36:01;;;;;;;1.35;1.17;;;;;;;19.23;31.82;96036.28;5093170;28;20130;-62
2022/11/22 06:38:29;;;;;;;4.93;1.40;;;;;;;19.82;30.23;96039.41;5092506;28;20490;-62
2022/11/22 06:41:00;;;;;;;1.50;1.40;;;;;;;20.66;29.32;96036.84;5093367;28;20502;-62
2022/11/22 06:43:28;;;;;;;2.30;1.75;;;;;;;21.12;28.02;96037.28;5093235;28;20075;-62
2022/11/22 06:45:56;;;;;;;2.08;1.88;;;;;;;21.68;27.24;96045.63;5093190;28;20127;-62
2022/11/22 06:48:23;;;;;;;3.33;1.52;;;;;;;22.20;26.77;96048.94;5092927;28;20502;-62
2022/11/22 06:50:50;;;;;;;1.23;1.13;;;;;;;22.54;26.25;96052.91;5093092;28;20456;-62
2022/11/22 06:53:18;;;;;;;2.45;1.52;;;;;;;22.85;25.30;96044.69;5093078;28;20533;-62
2022/11/22 06:55:46;;;;;;;1.40;1.30;;;;;;;23.43;24.71;96040.03;5093101;28;20075;-62
2022/11/22 06:58:13;;;;;;;2.85;1.33;;;;;;;23.89;24.05;96049.78;5093221;28;20044;-62
2022/11/22 07:00:40;;;;;;;2.08;1.50;;;;;;;24.03;24.30;96055.56;5093206;28;20044;-62
2022/11/22 07:03:07;;;;;;;1.58;1.40;;;;;;;23.90;24.06;96056.78;5092948;28;20120;-62
2022/11/22 07:05:35;;;;;;;1.08;1.00;;;;;;;24.44;23.42;96058.53;5092965;28;20444;-62
2022/11/22 07:08:02;;;;;;;1.40;1.23;;;;;;;24.97;22.98;96065.69;5093092;28;20375;-62
2022/11/22 07:10:31;;;;;;;1.02;1.02;;;;;;;25.45;22.43;96068.72;5092568;28;20052;-62
2022/11/22 07:12:58;;;;;;;1.42;1.33;;;;;;;25.86;22.96;96073.31;5092877;28;20459;-62
2022/11/22 07:15:25;;;;;;;1.90;1.13;;;;;;;26.38;21.01;96078.53;5092775;28;20424;-62
2022/11/22 07:17:52;;;;;;;1.75;1.40;;;;;;;26.72;20.67;96073.91;5092909;28;20048;-63
2022/11/22 07:20:20;;;;;;;1.70;1.50;;;;;;;27.00;21.06;96062.81;5092831;28;20048;-62
2022/11/22 07:22:47;;;;;;;1.00;1.00;;;;;;;27.25;20.82;96051.97;5092790;28;20451;-63
2022/11/22 07:25:15;;;;;;;1.30;1.20;;;;;;;27.40;20.54;96051.19;5092791;28;20453;-62
2022/11/22 07:27:43;;;;;;;1.50;1.30;;;;;;;27.53;19.83;96043.41;5092805;28;20081;-62
2022/11/22 07:30:11;;;;;;;1.33;1.10;;;;;;;27.81;20.82;96048.25;5092667;28;20055;-62
2022/11/22 07:32:39;;;;;;;1.40;1.10;;;;;;;27.79;20.38;96049.47;5092717;28;20044;-63
2022/11/22 07:35:06;;;;;;;1.40;1.30;;;;;;;27.87;19.77;96057.44;5092724;28;20066;-62
2022/11/22 07:37:33;;;;;;;1.10;1.10;;;;;;;27.86;19.69;96055.78;5092685;28;20093;-62
2022/11/22 07:40:01;;;;;;;1.25;1.15;;;;;;;27.87;19.61;96057.44;5092609;28;20044;-62
2022/11/22 07:42:28;;;;;;;1.10;1.00;;;;;;;28.13;18.80;96054.41;5092630;28;20048;-62
2022/11/22 07:44:57;;;;;;;1.15;1.05;;;;;;;28.78;18.76;96044.22;5092695;28;20066;-62
2022/11/22 07:47:24;;;;;;;2.22;1.00;;;;;;;29.03;19.12;96041.25;5092533;28;20138;-63
2022/11/22 07:49:51;;;;;;;2.10;1.27;;;;;;;28.77;18.67;96037.97;5093472;28;20055;-62
2022/11/22 07:52:18;;;;;;;1.27;1.17;;;;;;;28.29;19.40;96046.38;5096121;28;20489;-61
2022/11/22 07:54:46;;;;;;;1.40;1.30;;;;;;;28.29;19.62;96046.38;5096059;28;20097;-63
2022/11/22 07:57:13;;;;;;;1.65;1.20;;;;;;;27.86;20.40;96059.31;5096101;28;20394;-63
2022/11/22 07:59:40;;;;;;;1.70;1.58;;;;;;;26.74;22.06;96051.31;5096116;28;20052;-62
2022/11/22 08:02:11;;;;;;;1.35;1.25;;;;;;;25.91;22.87;96040.66;5095907;28;20482;-63
2022/11/22 08:04:38;;;;;;;1.50;1.30;;;;;;;26.26;22.46;96029.75;5095892;28;20048;-62
2022/11/22 08:07:05;;;;;;;1.35;1.25;;;;;;;26.53;22.35;96037.59;5095884;28;20159;-62
2022/11/22 08:09:33;;;;;;;4.25;1.67;;;;;;;26.74;21.64;96039.72;5095760;28;20051;-62
2022/11/22 08:12:00;;;;;;;1.35;1.10;;;;;;;26.68;20.73;96035.06;5095634;28;20052;-63
2022/11/22 08:14:27;;;;;;;1.17;1.08;;;;;;;26.67;20.97;96047.59;5095876;28;20055;-63
2022/11/22 08:16:55;;;;;;;1.13;1.10;;;;;;;26.56;21.50;96050.66;5095766;28;20135;-62
2022/11/22 08:19:24;;;;;;;1.63;1.50;;;;;;;25.31;23.08;96059.47;5095724;28;20474;-62
2022/11/22 08:21:51;;;;;;;3.25;1.67;;;;;;;23.26;26.46;96054.16;5095684;28;20127;-62
2022/11/22 08:24:19;;;;;;;1.55;1.45;;;;;;;22.41;27.58;96053.22;5095552;28;20063;-62
2022/11/22 08:26:46;;;;;;;1.58;1.38;;;;;;;22.42;27.78;96055.75;5095463;28;20051;-62
2022/11/22 08:29:13;;;;;;;1.92;1.55;;;;;;;21.62;28.48;96037.34;5095371;28;20044;-62
2022/11/22 08:31:41;;;;;;;1.52;1.42;;;;;;;20.41;29.14;96052.25;5095453;28;20050;-62
2022/11/22 08:34:08;;;;;;;3.92;1.30;;;;;;;19.59;30.89;96047.47;5095374;28;20501;-62
2022/11/22 08:36:39;;;;;;;2.80;2.00;;;;;;;19.02;31.72;96044.97;5095312;28;20129;-62
2022/11/22 08:39:06;;;;;;;1.60;1.50;;;;;;;18.39;33.90;96046.34;5095185;28;20498;-62
2022/11/22 08:41:33;;;;;;;1.63;1.52;;;;;;;18.11;33.42;96054.59;5095153;28;20040;-62
2022/11/22 08:44:00;;;;;;;4.65;1.73;;;;;;;17.80;33.68;96046.31;5095124;28;20493;-62
2022/11/22 08:46:28;;;;;;;1.52;1.40;;;;;;;17.48;32.86;96041.59;5095203;28;20044;-61
2022/11/22 08:48:55;;;;;;;1.73;1.42;;;;;;;16.92;33.19;96051.75;5095171;28;20456;-61
2022/11/22 08:51:22;;;;;;;1.40;1.30;;;;;;;16.26;34.13;96058.06;5095232;28;20040;-61
2022/11/22 08:53:51;;;;;;;2.85;1.52;;;;;;;15.68;36.63;96047.84;5095006;28;20080;-61
2022/11/22 08:56:18;;;;;;;3.08;2.10;;;;;;;15.21;40.53;96054.34;5094947;28;20409;-61
2022/11/22 08:58:45;;;;;;;2.08;1.77;;;;;;;15.01;41.45;96053.81;5094860;28;20044;-61
2022/11/22 09:01:15;;;;;;;2.50;1.90;;;;;;;14.53;42.82;96057.63;5094213;28;20047;-61
2022/11/22 09:03:43;;;;;;;8.73;2.00;;;;;;;14.16;44.84;96059.84;5094748;28;20048;-61
2022/11/22 09:06:13;;;;;;;5.20;2.13;;;;;;;14.06;45.42;96042.94;5094796;28;20044;-61
2022/11/22 09:08:41;;;;;;;5.22;2.42;;;;;;;14.12;45.18;96050.47;5094702;28;20125;-61
2022/11/22 09:11:12;;;;;;;2.58;2.38;;;;;;;14.09;44.10;96034.88;5094312;28;20059;-61
2022/11/22 09:13:39;;;;;;;2.38;2.13;;;;;;;13.76;44.39;96040.25;5094594;28;20059;-61
2022/11/22 09:16:09;;;;;;;2.47;2.20;;;;;;;13.59;45.44;96028.13;5094731;28;20127;-61
2022/11/22 09:18:37;;;;;;;2.20;2.00;;;;;;;13.49;45.19;96029.56;5094431;28;20048;-63
2022/11/22 09:21:06;;;;;;;2.08;1.88;;;;;;;13.45;42.89;96022.78;5094410;28;20054;-63
2022/11/22 09:23:34;;;;;;;2.10;1.90;;;;;;;13.24;44.25;96013.41;5094544;28;20048;-62
2022/11/22 09:26:04;;;;;;;1.92;1.83;;;;;;;13.02;43.48;96011.16;5093869;28;20048;-62
2022/11/22 09:28:33;;;;;;;2.10;1.88;;;;;;;12.95;45.09;96007.19;5094305;28;20075;-62
2022/11/22 09:31:02;;;;;;;1.70;1.60;;;;;;;12.73;46.59;95990.88;5094178;28;20048;-62
2022/11/22 09:33:29;;;;;;;2.58;1.95;;;;;;;12.60;44.84;95985.47;5094389;28;20043;-62
2022/11/22 09:36:00;;;;;;;3.92;2.00;;;;;;;12.27;44.11;95978.47;5094290;28;20101;-61
2022/11/22 09:38:28;;;;;;;1.77;1.67;;;;;;;12.29;45.08;95971.41;5094321;28;20123;-62
2022/11/22 09:40:55;;;;;;;1.83;1.73;;;;;;;12.17;45.82;95959.78;5094044;28;20056;-62
2022/11/22 09:43:35;;;;;;;2.10;1.90;;;;;;;12.10;47.93;95975.00;5094071;28;20556;-62
2022/11/22 09:46:18;;;;;;;1.90;1.80;;;;;;;12.06;46.09;95956.84;5094012;28;20546;-62
2022/11/22 09:49:15;;;;;;;3.92;2.00;;;;;;;12.13;45.49;95958.25;5094066;28;20047;-62
2022/11/22 09:51:48;;;;;;;1.70;1.60;;;;;;;12.09;48.00;95962.81;5093900;28;20048;-62
2022/11/22 09:54:22;;;;;;;2.78;1.80;;;;;;;12.40;44.84;95965.53;5093954;28;20535;-62
2022/11/22 09:56:54;;;;;;;2.05;1.67;;;;;;;12.67;46.27;95953.63;5093925;28;20044;-62
2022/11/22 09:59:27;;;;;;;1.48;1.27;;;;;;;12.87;45.64;95955.97;5093821;28;20044;-62
2022/11/22 10:02:04;;;;;;;1.67;1.58;;;;;;;13.02;43.80;95949.00;5093675;28;20117;-62
2022/11/22 10:04:37;;;;;;;2.63;1.90;;;;;;;13.17;45.84;95950.81;5093856;28;20044;-62
2022/11/22 10:07:14;;;;;;;2.20;1.60;;;;;;;13.29;45.94;95965.03;5093551;28;20048;-62
2022/11/22 10:09:47;;;;;;;2.83;1.58;;;;;;;13.43;44.56;95958.97;5093515;28;20101;-62
2022/11/22 10:12:21;;;;;;;1.35;1.25;;;;;;;13.59;42.55;95951.91;5093269;28;20048;-62
2022/11/22 10:14:57;;;;;;;2.25;1.48;;;;;;;13.58;41.78;95947.56;5093438;28;20477;-62
2022/11/22 10:17:36;;;;;;;2.58;1.42;;;;;;;13.49;42.01;95962.09;5093456;28;20083;-62
2022/11/22 10:20:07;;;;;;;1.92;1.70;;;;;;;13.30;42.28;95951.81;5093543;28;20044;-62
2022/11/22 10:22:35;;;;;;;3.83;2.60;;;;;;;13.44;44.19;95952.78;5093491;28;20054;-62
2022/11/22 10:25:04;;;;;;;4.88;2.70;;;;;;;13.39;43.29;95948.66;5093415;28;20090;-62
2022/11/22 10:27:33;;;;;;;4.18;2.58;;;;;;;13.48;45.04;95955.13;5093399;28;20504;-62
2022/11/22 10:30:05;;;;;;;2.28;2.00;;;;;;;13.30;43.31;95958.84;5093284;28;20051;-62
2022/11/22 10:32:39;;;;;;;3.85;2.70;;;;;;;13.20;43.49;95955.91;5093406;28;20048;-62
2022/11/22 10:35:29;;;;;;;5.82;3.40;;;;;;;13.26;46.71;95963.44;5093333;28;20048;-62
2022/11/22 10:38:04;;;;;;;4.95;3.50;;;;;;;13.24;46.24;95963.53;5093313;28;20549;-62
2022/11/22 10:40:42;;;;;;;3.80;2.83;;;;;;;13.29;45.41;95970.28;5093191;28;20052;-62
2022/11/22 10:43:28;;;;;;;2.95;2.63;;;;;;;13.21;44.30;95960.22;5093099;28;20071;-62
2022/11/22 10:46:05;;;;;;;2.60;2.40;;;;;;;13.10;44.23;95956.44;5093319;28;20055;-62
2022/11/22 10:48:43;;;;;;;2.95;2.25;;;;;;;13.00;43.05;95958.75;5093117;28;20559;-62
2022/11/22 10:51:20;;;;;;;4.47;2.55;;;;;;;12.91;44.54;95955.81;5092980;28;20558;-62
2022/11/22 10:54:01;;;;;;;5.45;2.65;;;;;;;12.98;44.85;95957.97;5093117;28;20097;-62
2022/11/22 10:56:33;;;;;;;5.05;2.72;;;;;;;13.06;44.24;95957.53;5093127;28;20448;-62
2022/11/22 10:59:26;;;;;;;1.98;1.75;;;;;;;13.13;44.49;95958.88;5093018;28;20126;-62
2022/11/22 11:02:00;;;;;;;2.60;2.38;;;;;;;13.25;44.72;95961.75;5093024;28;20086;-62
2022/11/22 11:04:31;;;;;;;3.30;2.58;;;;;;;13.20;43.70;95971.66;5093048;28;20080;-62
2022/11/22 11:07:02;;;;;;;4.05;2.53;;;;;;;13.11;43.54;95959.91;5092989;28;20044;-62
2022/11/22 11:09:37;;;;;;;3.72;2.50;;;;;;;13.11;44.92;95952.03;5092945;28;20410;-61
2022/11/22 11:12:11;;;;;;;6.15;2.40;;;;;;;13.08;43.70;95946.94;5092752;28;20048;-62
2022/11/22 11:14:42;;;;;;;2.15;1.90;;;;;;;13.16;44.45;95949.16;5093014;28;20052;-62
2022/11/22 11:17:16;;;;;;;2.65;1.75;;;;;;;13.17;43.81;95949.06;5092873;28;20040;-62
2022/11/22 11:19:47;;;;;;;2.85;2.10;;;;;;;13.15;44.24;95953.53;5092879;28;20501;-62
2022/11/22 11:22:18;;;;;;;2.85;1.80;;;;;;;13.19;45.01;95954.22;5092801;28;20102;-62
2022/11/22 11:24:45;;;;;;;2.72;2.25;;;;;;;13.05;44.34;95965.50;5093753;28;20040;-62
2022/11/22 11:27:13;;;;;;;2.42;2.20;;;;;;;13.07;45.49;95956.63;5096775;28;20464;-61
2022/11/22 11:29:45;;;;;;;2.42;2.22;;;;;;;13.11;44.92;95952.88;5096734;28;20433;-61
2022/11/22 11:32:16;;;;;;;5.70;2.13;;;;;;;13.03;45.26;95947.22;5096598;28;20554;-62
2022/11/22 11:34:52;;;;;;;2.58;1.80;;;;;;;12.95;44.42;95946.81;5096618;28;20044;-62
2022/11/22 11:37:25;;;;;;;2.17;1.98;;;;;;;12.88;44.02;95948.94;5096427;28;20052;-62
2022/11/22 11:39:52;;;;;;;7.10;2.28;;;;;;;12.70;44.37;95941.16;5096417;28;20052;-62
2022/11/22 11:42:25;;;;;;;2.80;2.28;;;;;;;12.68;45.97;95940.44;5096420;28;20051;-62
2022/11/22 11:44:53;;;;;;;2.95;2.38;;;;;;;12.64;45.02;95931.00;5096383;28;20052;-62
2022/11/22 11:47:33;;;;;;;5.43;2.75;;;;;;;12.69;46.18;95936.88;5096279;28;20047;-62
2022/11/22 11:50:00;;;;;;;4.07;2.70;;;;;;;12.77;46.37;95924.16;5096239;28;20075;-62
2022/11/22 11:52:29;;;;;;;3.80;2.95;;;;;;;12.74;46.69;95924.31;5096231;28;20052;-62
2022/11/22 11:54:59;;;;;;;4.65;3.00;;;;;;;12.79;47.30;95920.59;5096170;28;20044;-61
2022/11/22 11:57:29;;;;;;;;;;;;;;;12.82;46.38;95923.88;5096582;28;20135;-61
2022/11/22 11:59:58;;;;;;;7.30;3.20;;;;;;;12.77;46.37;95918.06;5096096;28;19920;-62
2022/11/22 12:02:34;;;;;;;6.05;2.72;;;;;;;12.74;46.97;95920.88;5095937;28;20101;-62